Time;durP1;ratioP1;P1;durP2;ratioP2;P2;SDS_P1;SDS_P2;PMS_P1;PMS_P2;Temp;Humidity;BMP_temperature;BMP_pressure;BME280_temperature;BME280_humidity;BME280_pressure;Samples;Min_cycle;Max_cycle;Signal;HPM_P1;HPM_P2
2022/09/07 00:00:55;;;;;;;10.67;7.80;;;;;;;18.67;100.00;101879.47;2081007;28;20185;-63
2022/09/07 00:01:55;;;;;;;8.60;7.77;;;;;;;18.65;100.00;101872.75;2080580;28;20670;-63
2022/09/07 00:02:56;;;;;;;11.37;8.23;;;;;;;18.63;100.00;101878.06;2080001;28;20197;-64
2022/09/07 00:03:57;;;;;;;11.27;7.43;;;;;;;18.66;100.00;101882.72;2078644;28;20193;-63
2022/09/07 00:04:57;;;;;;;8.30;7.40;;;;;;;18.67;100.00;101871.06;2079652;28;20736;-63
2022/09/07 00:05:58;;;;;;;11.37;7.90;;;;;;;18.69;100.00;101874.19;2079090;28;20543;-63
2022/09/07 00:06:59;;;;;;;10.27;7.50;;;;;;;18.70;100.00;101870.16;2079919;28;20208;-63
2022/09/07 00:07:59;;;;;;;10.57;8.30;;;;;;;18.70;100.00;101869.34;2080674;28;20181;-63
2022/09/07 00:09:02;;;;;;;14.50;9.37;;;;;;;17.96;100.00;101765.41;2080795;28;20181;-63
2022/09/07 00:10:03;;;;;;;10.00;8.50;;;;;;;18.64;100.00;101874.00;2080623;28;20196;-63
2022/09/07 00:11:07;;;;;;;10.67;9.53;;;;;;;18.50;100.00;101864.09;2080607;28;20471;-63
2022/09/07 00:12:07;;;;;;;13.83;9.97;;;;;;;18.61;100.00;101874.91;2080697;28;20205;-62
2022/09/07 00:13:08;;;;;;;12.20;9.97;;;;;;;18.58;100.00;101879.41;2080531;28;20472;-63
2022/09/07 00:14:08;;;;;;;13.43;9.40;;;;;;;18.51;100.00;101873.25;2079743;28;20189;-63
2022/09/07 00:15:10;;;;;;;12.77;9.87;;;;;;;18.58;100.00;101878.63;2079540;28;20668;-64
2022/09/07 00:16:14;;;;;;;13.93;10.13;;;;;;;18.57;100.00;101879.88;2080177;28;20714;-63
2022/09/07 00:17:15;;;;;;;13.47;9.87;;;;;;;18.55;100.00;101882.34;2080087;28;20438;-63
2022/09/07 00:18:16;;;;;;;24.13;11.43;;;;;;;17.72;100.00;101758.69;2080957;28;20451;-63
2022/09/07 00:19:16;;;;;;;15.20;11.57;;;;;;;18.59;100.00;101883.00;2079820;28;20184;-63
2022/09/07 00:20:17;;;;;;;13.50;10.43;;;;;;;18.54;100.00;101881.59;2080856;28;20428;-63
2022/09/07 00:21:18;;;;;;;17.67;11.00;;;;;;;18.43;100.00;101863.56;2080358;28;20663;-63
2022/09/07 00:22:18;;;;;;;15.83;11.30;;;;;;;17.91;100.00;101791.25;2080335;28;20287;-63
2022/09/07 00:23:18;;;;;;;16.20;10.87;;;;;;;18.53;100.00;101884.84;2079613;28;20224;-63
2022/09/07 00:24:19;;;;;;;16.37;12.50;;;;;;;18.55;100.00;101896.38;2079781;28;20209;-63
2022/09/07 00:25:19;;;;;;;13.90;11.83;;;;;;;18.54;100.00;101887.19;2079340;28;20239;-63
2022/09/07 00:26:27;;;;;;;13.07;11.37;;;;;;;18.55;100.00;101877.53;2079737;28;20185;-63
2022/09/07 00:27:27;;;;;;;14.30;11.23;;;;;;;18.57;100.00;101880.66;2080245;28;20224;-63
2022/09/07 00:28:29;;;;;;;16.50;11.27;;;;;;;17.94;100.00;101785.50;2080965;28;20514;-63
2022/09/07 00:29:29;;;;;;;16.63;11.87;;;;;;;18.59;100.00;101883.00;2079423;28;20185;-63
2022/09/07 00:30:29;;;;;;;16.20;11.60;;;;;;;18.57;100.00;101880.66;2080139;28;20502;-63
2022/09/07 00:31:30;;;;;;;21.53;11.90;;;;;;;18.61;100.00;101881.31;2080066;28;20244;-63
2022/09/07 00:32:31;;;;;;;16.63;11.33;;;;;;;18.61;100.00;101877.72;2080108;28;20201;-63
2022/09/07 00:33:31;;;;;;;13.70;10.47;;;;;;;18.62;100.00;101880.06;2080128;28;20225;-63
2022/09/07 00:34:32;;;;;;;14.93;11.00;;;;;;;18.64;100.00;101877.59;2079799;28;20659;-63
2022/09/07 00:35:32;;;;;;;14.17;11.03;;;;;;;18.66;100.00;101872.28;2080180;28;20189;-64
2022/09/07 00:36:33;;;;;;;15.00;11.00;;;;;;;18.67;100.00;101878.72;2080503;28;20712;-63
2022/09/07 00:37:33;;;;;;;14.80;12.00;;;;;;;18.61;100.00;101872.09;2079871;28;20884;-63
2022/09/07 00:38:34;;;;;;;12.90;11.40;;;;;;;18.61;100.00;101891.75;2080504;28;20319;-63
2022/09/07 00:39:36;;;;;;;15.23;11.67;;;;;;;18.61;100.00;101881.31;2080091;28;21190;-63
2022/09/07 00:40:36;;;;;;;14.80;12.30;;;;;;;17.93;100.00;101786.75;2079192;28;20684;-63
2022/09/07 00:41:37;;;;;;;13.67;11.80;;;;;;;18.56;100.00;101879.09;2080267;28;20816;-63
2022/09/07 00:42:37;;;;;;;16.30;11.93;;;;;;;18.55;100.00;101871.13;2080232;28;20204;-64
2022/09/07 00:43:41;;;;;;;12.63;11.20;;;;;;;18.57;100.00;101880.66;2079570;28;20185;-63
2022/09/07 00:44:41;;;;;;;15.70;12.00;;;;;;;18.58;100.00;101878.63;2079791;28;20209;-63
2022/09/07 00:45:42;;;;;;;14.13;10.60;;;;;;;18.55;100.00;101874.72;2079414;28;20430;-62
2022/09/07 00:46:42;;;;;;;17.93;11.53;;;;;;;18.58;100.00;101881.44;2079488;28;20199;-62
2022/09/07 00:48:04;;;;;;;14.00;11.40;;;;;;;18.58;100.00;101879.41;2080039;28;20176;-63
2022/09/07 00:49:18;;;;;;;15.73;11.60;;;;;;;18.58;100.00;101901.09;2079260;28;20191;-63
2022/09/07 00:50:32;;;;;;;13.77;10.83;;;;;;;18.58;100.00;101879.41;2080180;28;20860;-63
2022/09/07 00:51:41;;;;;;;16.03;10.70;;;;;;;18.61;100.00;101872.09;2080668;28;20463;-63
2022/09/07 00:52:43;;;;;;;18.97;10.63;;;;;;;18.61;100.00;101880.50;2080638;28;20474;-64
2022/09/07 00:53:53;;;;;;;12.57;9.43;;;;;;;18.63;100.00;101876.00;2079568;28;20411;-63
2022/09/07 00:54:59;;;;;;;13.37;9.27;;;;;;;17.86;100.00;101763.78;2078995;28;20403;-62
2022/09/07 00:56:01;;;;;;;15.13;10.33;;;;;;;18.65;100.00;101873.53;2079773;28;20795;-63
2022/09/07 00:57:03;;;;;;;14.37;9.77;;;;;;;18.64;100.00;101874.00;2079545;28;20940;-63
2022/09/07 00:58:04;;;;;;;14.27;8.70;;;;;;;18.54;100.00;101861.13;2080277;28;20435;-63
2022/09/07 00:59:06;;;;;;;16.73;9.00;;;;;;;18.65;100.00;101867.94;2079129;28;20940;-63
2022/09/07 01:00:07;;;;;;;15.47;8.73;;;;;;;18.63;100.00;101875.25;2080033;28;20973;-63
2022/09/07 01:01:08;;;;;;;12.80;8.67;;;;;;;18.63;100.00;101870.41;2080038;28;20439;-62
2022/09/07 01:02:12;;;;;;;13.73;9.13;;;;;;;18.63;100.00;101867.59;2080062;28;20423;-62
2022/09/07 01:03:16;;;;;;;13.40;9.97;;;;;;;18.61;100.00;101863.66;2079243;28;20427;-63
2022/09/07 01:04:17;;;;;;;14.00;9.90;;;;;;;18.57;100.00;101863.81;2079525;28;20839;-63
2022/09/07 01:05:32;;;;;;;12.10;9.60;;;;;;;18.56;100.00;101859.44;2079515;28;20447;-63
2022/09/07 01:06:35;;;;;;;14.93;10.10;;;;;;;18.52;100.00;101860.81;2078683;28;20169;-63
2022/09/07 01:07:36;;;;;;;13.73;9.93;;;;;;;18.47;100.00;101853.75;2080407;28;20492;-63
2022/09/07 01:08:37;;;;;;;13.87;10.27;;;;;;;18.46;100.00;101857.81;2079879;28;20500;-63
2022/09/07 01:09:38;;;;;;;13.27;10.70;;;;;;;18.45;100.00;101852.66;2079746;28;20215;-64
2022/09/07 01:10:39;;;;;;;17.10;10.87;;;;;;;18.05;100.00;101801.97;2080178;28;20476;-63
2022/09/07 01:11:42;;;;;;;17.03;10.73;;;;;;;18.40;100.00;101858.84;2079618;28;20471;-63
2022/09/07 01:12:42;;;;;;;16.80;10.57;;;;;;;18.38;100.00;101856.47;2080216;28;20193;-64
2022/09/07 01:13:45;;;;;;;13.43;10.40;;;;;;;18.30;100.00;101846.75;2079047;28;20426;-62
2022/09/07 01:14:50;;;;;;;13.17;10.70;;;;;;;18.34;100.00;101853.03;2079069;28;20299;-63
2022/09/07 01:15:59;;;;;;;15.20;11.20;;;;;;;18.32;100.00;101857.53;2079802;28;20408;-63
2022/09/07 01:17:11;;;;;;;14.03;10.73;;;;;;;18.29;100.00;101857.16;2079885;28;20979;-63
2022/09/07 01:18:25;;;;;;;14.23;10.40;;;;;;;18.28;100.00;101864.03;2079622;28;20506;-63
2022/09/07 01:19:25;;;;;;;14.27;10.60;;;;;;;18.28;100.00;101857.66;2079542;28;20434;-63
2022/09/07 01:20:44;;;;;;;12.60;10.33;;;;;;;17.95;100.00;101800.31;2079825;28;20495;-63
2022/09/07 01:22:18;;;;;;;14.53;10.93;;;;;;;18.24;100.00;101857.75;2079979;28;20615;-62
2022/09/07 01:23:34;;;;;;;15.57;11.37;;;;;;;18.23;100.00;101850.59;2079958;28;20445;-63
2022/09/07 01:24:47;;;;;;;12.50;10.93;;;;;;;17.73;100.00;101789.06;2079370;28;20906;-63
2022/09/07 01:26:25;;;;;;;14.03;10.87;;;;;;;18.18;100.00;101864.44;2078848;28;20538;-63
2022/09/07 01:27:47;;;;;;;12.47;10.57;;;;;;;18.16;100.00;101855.66;2078142;28;20451;-63
2022/09/07 01:28:57;;;;;;;13.43;9.90;;;;;;;18.13;100.00;101856.59;2079987;28;20444;-63
2022/09/07 01:30:08;;;;;;;17.87;10.43;;;;;;;18.13;100.00;101856.59;2079730;28;20523;-63
2022/09/07 01:31:33;;;;;;;19.53;9.90;;;;;;;18.13;100.00;101856.59;2079364;28;20438;-63
2022/09/07 01:32:42;;;;;;;16.23;9.97;;;;;;;18.13;100.00;101876.22;2080083;28;20443;-63
2022/09/07 01:33:58;;;;;;;15.87;9.77;;;;;;;18.11;100.00;101867.47;2079834;28;20436;-63
2022/09/07 01:35:02;;;;;;;13.23;9.93;;;;;;;17.73;100.00;101810.72;2078483;28;20445;-63
2022/09/07 01:36:25;;;;;;;15.83;10.13;;;;;;;18.09;100.00;101862.31;2079431;28;20437;-63
2022/09/07 01:37:50;;;;;;;13.10;9.57;;;;;;;18.09;100.00;101864.34;2080310;28;20882;-63
2022/09/07 01:38:53;;;;;;;25.27;10.70;;;;;;;18.09;100.00;101872.75;2079581;28;20943;-63
2022/09/07 01:40:06;;;;;;;21.80;10.40;;;;;;;17.18;100.00;101728.09;2079871;28;20472;-63
2022/09/07 01:41:39;;;;;;;13.50;8.23;;;;;;;17.91;100.00;101869.00;2078851;28;20407;-62
2022/09/07 01:42:50;;;;;;;10.70;7.60;;;;;;;17.87;100.00;101863.53;2079947;28;21015;-63
2022/09/07 01:44:05;;;;;;;13.83;8.47;;;;;;;17.83;100.00;101872.03;2079241;28;20646;-63
2022/09/07 01:45:10;;;;;;;14.60;9.07;;;;;;;17.75;100.00;101861.50;2078924;28;20446;-63
2022/09/07 01:46:26;;;;;;;10.93;8.70;;;;;;;17.78;100.00;101866.22;2079714;28;21036;-63
2022/09/07 01:47:42;;;;;;;13.60;8.60;;;;;;;17.13;100.00;101770.69;2079840;28;20530;-63
2022/09/07 01:48:45;;;;;;;10.77;8.63;;;;;;;17.67;100.00;101868.59;2079891;28;20796;-63
2022/09/07 01:49:46;;;;;;;11.17;8.60;;;;;;;17.67;100.00;101865.81;2079225;28;20450;-63
2022/09/07 01:50:52;;;;;;;11.77;9.03;;;;;;;17.63;100.00;101865.91;2079859;28;20476;-62
2022/09/07 01:52:01;;;;;;;10.00;8.17;;;;;;;17.62;100.00;101865.56;2079671;28;20207;-62
2022/09/07 01:53:05;;;;;;;9.60;8.33;;;;;;;17.55;100.00;101872.19;2078860;28;20440;-63
2022/09/07 01:54:14;;;;;;;13.10;9.33;;;;;;;17.56;100.00;101870.19;2079920;28;20587;-62
2022/09/07 01:55:30;;;;;;;11.37;9.03;;;;;;;17.57;100.00;101872.53;2079028;28;20435;-63
2022/09/07 01:56:37;;;;;;;11.50;8.60;;;;;;;17.56;100.00;101870.19;2079450;28;20431;-63
2022/09/07 01:58:19;;;;;;;9.90;8.90;;;;;;;17.43;100.00;101864.59;2078914;28;20533;-63
2022/09/07 01:59:34;;;;;;;10.33;9.10;;;;;;;17.34;100.00;101873.66;2079409;28;20431;-63
2022/09/07 02:00:38;;;;;;;11.17;8.77;;;;;;;17.30;100.00;101858.16;2079698;28;20419;-63
2022/09/07 02:01:44;;;;;;;10.27;9.17;;;;;;;17.35;100.00;101883.63;2080038;28;20424;-63
2022/09/07 02:02:54;;;;;;;11.60;8.70;;;;;;;17.35;100.00;101866.00;2080125;28;20442;-62
2022/09/07 02:03:57;;;;;;;10.30;8.30;;;;;;;17.34;100.00;101861.66;2079834;28;20403;-63
2022/09/07 02:05:07;;;;;;;13.07;10.30;;;;;;;17.36;100.00;101865.56;2079438;28;20431;-63
2022/09/07 02:06:46;;;;;;;18.80;10.33;;;;;;;17.35;100.00;101863.22;2080142;28;20931;-63
2022/09/07 02:08:12;;;;;;;25.93;11.70;;;;;;;17.32;100.00;101862.09;2078371;28;20848;-63
2022/09/07 02:09:24;;;;;;;29.03;11.47;;;;;;;16.75;100.00;101769.88;2078162;28;20447;-63
2022/09/07 02:10:37;;;;;;;21.63;10.80;;;;;;;17.33;100.00;101851.69;2079190;28;20463;-63
2022/09/07 02:11:46;;;;;;;18.67;9.33;;;;;;;17.35;100.00;101855.59;2079650;28;20464;-63
2022/09/07 02:12:49;;;;;;;16.20;9.87;;;;;;;17.36;100.00;101856.41;2079486;28;20483;-63
2022/09/07 02:14:32;;;;;;;16.67;10.10;;;;;;;17.37;100.00;101853.13;2080000;28;20445;-63
2022/09/07 02:15:42;;;;;;;14.77;9.83;;;;;;;17.38;100.00;101856.72;2079368;28;20408;-62
2022/09/07 02:16:52;;;;;;;16.77;10.03;;;;;;;17.03;100.00;101805.41;2078050;28;20428;-63
2022/09/07 02:18:03;;;;;;;13.20;9.70;;;;;;;17.42;100.00;101848.22;2078797;28;20423;-63
2022/09/07 02:19:10;;;;;;;13.40;9.53;;;;;;;17.37;100.00;101850.31;2079225;28;20497;-63
2022/09/07 02:20:17;;;;;;;17.87;9.97;;;;;;;17.33;100.00;101848.88;2079195;28;20863;-63
2022/09/07 02:21:23;;;;;;;12.77;10.67;;;;;;;17.45;100.00;101855.75;2079121;28;20422;-63
2022/09/07 02:22:28;;;;;;;11.67;10.13;;;;;;;17.40;100.00;101851.47;2079579;28;20425;-63
2022/09/07 02:23:36;;;;;;;14.90;10.50;;;;;;;17.47;100.00;101858.88;2079989;28;20478;-62
2022/09/07 02:24:40;;;;;;;13.60;10.53;;;;;;;16.89;100.00;101766.66;2079534;28;20959;-63
2022/09/07 02:25:52;;;;;;;14.57;10.87;;;;;;;17.50;100.00;101860.78;2078857;28;20420;-63
2022/09/07 02:26:54;;;;;;;12.67;9.40;;;;;;;17.51;100.00;101863.09;2079607;28;20944;-62
2022/09/07 02:28:07;;;;;;;13.57;8.77;;;;;;;17.51;100.00;101848.34;2079288;28;20477;-62
2022/09/07 02:29:08;;;;;;;12.93;11.10;;;;;;;17.50;100.00;101855.19;2079622;28;20423;-63
2022/09/07 02:30:09;;;;;;;13.10;10.60;;;;;;;17.41;100.00;101846.66;2079944;28;20435;-62
2022/09/07 02:31:09;;;;;;;15.10;10.20;;;;;;;17.09;100.00;101800.03;2079224;28;20663;-63
2022/09/07 02:32:10;;;;;;;13.97;9.53;;;;;;;17.52;100.00;101859.09;2079358;28;20884;-62
2022/09/07 02:33:11;;;;;;;11.03;9.20;;;;;;;17.53;100.00;101858.63;2079487;28;20193;-62
2022/09/07 02:34:14;;;;;;;14.07;9.53;;;;;;;17.55;100.00;101860.22;2079876;28;20197;-63
2022/09/07 02:35:14;;;;;;;20.60;11.70;;;;;;;17.39;100.00;101835.91;2078764;28;20674;-62
2022/09/07 02:36:18;;;;;;;23.90;11.57;;;;;;;17.48;100.00;101843.63;2079205;28;20492;-63
2022/09/07 02:37:20;;;;;;;27.80;12.07;;;;;;;17.53;100.00;101863.47;2079587;28;20187;-63
2022/09/07 02:38:20;;;;;;;26.47;10.17;;;;;;;17.40;100.00;101837.44;2081833;28;20496;-63
2022/09/07 02:39:21;;;;;;;17.53;9.90;;;;;;;17.52;100.00;101859.88;2080836;28;20446;-62
2022/09/07 02:40:21;;;;;;;18.03;10.43;;;;;;;17.53;100.00;101858.63;2081534;28;20197;-63
2022/09/07 02:41:32;;;;;;;15.47;9.33;;;;;;;17.55;100.00;101852.56;2081291;28;20193;-63
2022/09/07 02:42:33;;;;;;;18.23;10.30;;;;;;;16.82;100.00;101743.69;2080911;28;20679;-64
2022/09/07 02:43:34;;;;;;;20.27;9.23;;;;;;;17.53;100.00;101853.00;2080784;28;20442;-63
2022/09/07 02:44:38;;;;;;;13.90;8.93;;;;;;;17.49;100.00;101854.38;2080908;28;20449;-63
2022/09/07 02:45:41;;;;;;;12.47;8.37;;;;;;;17.45;100.00;101845.28;2080119;28;20243;-63
2022/09/07 02:47:05;;;;;;;12.80;9.20;;;;;;;17.46;100.00;101841.28;2080621;28;20429;-64
2022/09/07 02:48:21;;;;;;;13.43;8.63;;;;;;;17.01;100.00;101771.47;2080772;28;20983;-63
2022/09/07 02:49:46;;;;;;;21.03;9.97;;;;;;;17.31;100.00;101838.09;2080903;28;20449;-63
2022/09/07 02:51:10;;;;;;;25.90;10.10;;;;;;;17.29;100.00;101837.00;2080947;28;20441;-63
2022/09/07 02:52:48;;;;;;;25.53;9.77;;;;;;;17.32;100.00;101833.31;2081575;28;20526;-63
2022/09/07 02:54:04;;;;;;;15.60;8.67;;;;;;;17.33;100.00;101834.88;2080591;28;20438;-63
2022/09/07 02:55:42;;;;;;;12.40;8.13;;;;;;;17.30;100.00;101836.53;2079342;28;20477;-63
2022/09/07 02:57:24;;;;;;;18.93;8.73;;;;;;;17.30;100.00;101835.75;2081042;28;20405;-63
2022/09/07 02:58:50;;;;;;;18.30;9.53;;;;;;;17.27;100.00;101836.66;2087109;28;20449;-63
2022/09/07 03:00:10;;;;;;;17.97;8.37;;;;;;;17.27;100.00;101840.22;2087298;28;20947;-63
2022/09/07 03:01:37;;;;;;;14.70;8.83;;;;;;;17.25;100.00;101839.13;2081258;28;20986;-63
2022/09/07 03:02:50;;;;;;;13.17;8.97;;;;;;;17.23;100.00;101839.59;2080660;28;20951;-62
2022/09/07 03:04:17;;;;;;;18.73;8.57;;;;;;;17.22;100.00;101845.63;2080505;28;20793;-63
2022/09/07 03:05:31;;;;;;;14.47;8.83;;;;;;;17.20;100.00;101845.28;2080054;28;20469;-62
2022/09/07 03:06:40;;;;;;;13.60;8.67;;;;;;;17.21;100.00;101846.88;2079833;28;20959;-63
2022/09/07 03:07:51;;;;;;;18.70;8.93;;;;;;;17.21;100.00;101852.47;2080377;28;20944;-63
2022/09/07 03:08:55;;;;;;;10.33;8.30;;;;;;;17.20;100.00;101854.47;2079577;28;20438;-63
2022/09/07 03:09:58;;;;;;;13.53;7.40;;;;;;;17.21;100.00;101852.47;2080083;28;20462;-63
2022/09/07 03:11:00;;;;;;;15.77;8.30;;;;;;;17.19;100.00;101858.53;2079259;28;20447;-63
2022/09/07 03:12:02;;;;;;;13.80;10.27;;;;;;;17.20;100.00;101851.69;2079040;28;20574;-62
2022/09/07 03:13:03;;;;;;;11.80;9.10;;;;;;;17.19;100.00;101857.72;2080298;28;20423;-63
2022/09/07 03:14:32;;;;;;;11.57;8.43;;;;;;;17.21;100.00;101861.66;2080272;28;21026;-62
2022/09/07 03:15:32;;;;;;;11.20;8.37;;;;;;;17.20;100.00;101864.88;2079534;28;20627;-63
2022/09/07 03:16:33;;;;;;;11.57;8.60;;;;;;;17.18;100.00;101865.34;2080462;28;20426;-63
2022/09/07 03:17:33;;;;;;;10.03;7.90;;;;;;;17.18;100.00;101865.34;2080563;28;20656;-62
2022/09/07 03:18:34;;;;;;;10.47;7.63;;;;;;;17.18;100.00;101870.16;2081489;28;20173;-63
2022/09/07 03:19:35;;;;;;;7.53;6.73;;;;;;;17.16;100.00;101867.81;2080411;28;20406;-63
2022/09/07 03:20:35;;;;;;;9.70;7.23;;;;;;;17.11;100.00;101856.41;2080978;28;20193;-62
2022/09/07 03:21:36;;;;;;;11.90;7.50;;;;;;;17.15;100.00;101862.66;2079322;28;20447;-64
2022/09/07 03:22:37;;;;;;;10.57;8.50;;;;;;;17.13;100.00;101863.13;2081177;28;20299;-63
2022/09/07 03:23:37;;;;;;;13.13;7.80;;;;;;;17.12;100.00;101857.97;2080782;28;20382;-63
2022/09/07 03:24:38;;;;;;;12.53;9.63;;;;;;;17.08;100.00;101857.28;2080302;28;20427;-62
2022/09/07 03:25:39;;;;;;;9.50;8.50;;;;;;;17.07;100.00;101856.47;2079820;28;20583;-63
2022/09/07 03:26:43;;;;;;;12.63;9.33;;;;;;;17.04;100.00;101871.41;2081040;28;20214;-63
2022/09/07 03:27:43;;;;;;;11.00;7.70;;;;;;;16.97;100.00;101865.22;2080485;28;20223;-62
2022/09/07 03:28:46;;;;;;;12.37;7.73;;;;;;;16.83;100.00;101852.44;2080851;28;20479;-63
2022/09/07 03:29:46;;;;;;;10.97;8.13;;;;;;;16.90;100.00;101869.00;2080672;28;20184;-63
2022/09/07 03:30:47;;;;;;;13.03;7.70;;;;;;;16.86;100.00;101864.75;2080743;28;20536;-63
2022/09/07 03:31:48;;;;;;;10.73;7.97;;;;;;;16.81;100.00;101868.88;2080044;28;20261;-62
2022/09/07 03:32:49;;;;;;;11.70;8.60;;;;;;;16.36;100.00;101801.03;2081051;28;20193;-63
2022/09/07 03:33:49;;;;;;;12.23;8.60;;;;;;;16.79;100.00;101868.56;2080569;28;20455;-62
2022/09/07 03:34:51;;;;;;;11.93;8.17;;;;;;;16.72;100.00;101867.97;2079412;28;20256;-62
2022/09/07 03:36:00;;;;;;;11.47;8.40;;;;;;;16.77;100.00;101870.22;2080969;28;20186;-63
2022/09/07 03:37:00;;;;;;;14.73;9.03;;;;;;;16.78;100.00;101867.00;2080844;28;20813;-62
2022/09/07 03:38:01;;;;;;;12.20;8.73;;;;;;;16.08;100.00;101762.69;2080261;28;20464;-63
2022/09/07 03:39:06;;;;;;;10.77;8.23;;;;;;;16.79;100.00;101867.75;2080687;28;20684;-63
2022/09/07 03:40:09;;;;;;;13.93;8.90;;;;;;;16.81;100.00;101868.13;2080883;28;20744;-63
2022/09/07 03:41:10;;;;;;;12.33;9.47;;;;;;;16.71;100.00;101855.22;2080035;28;20467;-62
2022/09/07 03:42:11;;;;;;;11.90;9.30;;;;;;;16.81;100.00;101868.13;2079595;28;20453;-63
2022/09/07 03:43:12;;;;;;;14.90;10.30;;;;;;;16.80;100.00;101872.91;2080749;28;20431;-62
2022/09/07 03:44:12;;;;;;;14.87;9.27;;;;;;;16.83;100.00;101865.63;2080606;28;20176;-62
2022/09/07 03:45:13;;;;;;;13.33;9.83;;;;;;;16.84;100.00;101872.81;2079774;28;20191;-63
2022/09/07 03:46:18;;;;;;;13.37;9.90;;;;;;;16.77;100.00;101868.22;2080941;28;20183;-62
2022/09/07 03:47:18;;;;;;;14.43;10.07;;;;;;;16.80;100.00;101875.72;2080974;28;20191;-63
2022/09/07 03:48:19;;;;;;;11.43;9.33;;;;;;;16.77;100.00;101875.81;2080040;28;20435;-62
2022/09/07 03:49:19;;;;;;;18.20;9.13;;;;;;;16.76;100.00;101879.88;2079691;28;20196;-63
2022/09/07 03:50:20;;;;;;;14.67;9.70;;;;;;;16.75;100.00;101870.66;2080729;28;20207;-63
2022/09/07 03:51:20;;;;;;;13.90;8.90;;;;;;;16.73;100.00;101878.72;2079329;28;20204;-62
2022/09/07 03:52:21;;;;;;;12.70;8.87;;;;;;;16.72;100.00;101873.56;2079504;28;20684;-63
2022/09/07 03:53:21;;;;;;;13.87;8.90;;;;;;;16.68;100.00;101884.09;2080197;28;20222;-63
2022/09/07 03:54:22;;;;;;;10.60;8.77;;;;;;;16.65;100.00;101882.19;2079199;28;20189;-63
2022/09/07 03:55:23;;;;;;;12.80;8.37;;;;;;;16.59;100.00;101881.94;2080001;28;20196;-62
2022/09/07 03:56:23;;;;;;;13.23;8.80;;;;;;;16.57;100.00;101886.41;2079580;28;20192;-63
2022/09/07 03:57:24;;;;;;;14.60;9.17;;;;;;;16.53;100.00;101883.72;2080564;28;20211;-63
2022/09/07 03:58:25;;;;;;;11.60;8.10;;;;;;;16.04;100.00;101803.94;2079530;28;20192;-63
2022/09/07 03:59:25;;;;;;;14.97;8.57;;;;;;;15.73;100.00;101769.25;2079238;28;20219;-62
2022/09/07 04:00:26;;;;;;;12.30;8.60;;;;;;;16.50;100.00;101884.59;2079980;28;20436;-62
2022/09/07 04:01:27;;;;;;;11.07;8.87;;;;;;;16.48;100.00;101892.66;2080555;28;20192;-63
2022/09/07 04:02:27;;;;;;;15.57;8.83;;;;;;;16.44;100.00;101894.75;2080629;28;20228;-62
2022/09/07 04:03:28;;;;;;;11.13;8.27;;;;;;;16.43;100.00;101892.41;2080912;28;20247;-62
2022/09/07 04:04:29;;;;;;;15.60;8.57;;;;;;;16.40;100.00;101891.25;2079373;28;20245;-63
2022/09/07 04:05:31;;;;;;;11.77;8.13;;;;;;;16.31;100.00;101881.91;2078828;28;20673;-63
2022/09/07 04:06:31;;;;;;;12.07;7.67;;;;;;;16.32;100.00;101892.69;2079517;28;20521;-62
2022/09/07 04:07:32;;;;;;;11.70;7.67;;;;;;;16.31;100.00;101888.31;2079376;28;20474;-62
2022/09/07 04:08:34;;;;;;;13.23;7.80;;;;;;;16.06;100.00;101853.84;2079988;28;20203;-62
2022/09/07 04:09:35;;;;;;;12.23;7.60;;;;;;;16.27;100.00;101893.22;2080108;28;20349;-63
2022/09/07 04:10:37;;;;;;;11.77;8.40;;;;;;;16.17;100.00;101882.28;2080692;28;20466;-63
2022/09/07 04:11:39;;;;;;;12.67;7.77;;;;;;;16.29;100.00;101901.16;2079865;28;20188;-63
2022/09/07 04:12:39;;;;;;;10.60;7.80;;;;;;;16.27;100.00;101901.59;2081012;28;20424;-63
2022/09/07 04:13:40;;;;;;;11.80;7.83;;;;;;;16.24;100.00;101905.28;2079834;28;20478;-62
2022/09/07 04:14:41;;;;;;;13.33;7.90;;;;;;;16.04;100.00;101878.66;2080339;28;20200;-62
2022/09/07 04:15:41;;;;;;;10.37;7.90;;;;;;;16.23;100.00;101911.28;2079404;28;20446;-63
2022/09/07 04:16:44;;;;;;;9.30;7.70;;;;;;;16.22;100.00;101909.72;2080303;28;20219;-63
2022/09/07 04:17:45;;;;;;;8.83;7.00;;;;;;;16.19;100.00;101908.59;2080361;28;20223;-63
2022/09/07 04:18:48;;;;;;;14.00;7.37;;;;;;;16.20;100.00;101906.59;2080618;28;20815;-63
2022/09/07 04:19:48;;;;;;;13.93;7.47;;;;;;;16.03;100.00;101891.84;2079997;28;20420;-62
2022/09/07 04:20:49;;;;;;;9.07;7.53;;;;;;;16.10;100.00;101905.66;2080399;28;20431;-62
2022/09/07 04:21:50;;;;;;;9.13;7.33;;;;;;;16.12;100.00;101908.78;2080688;28;20180;-62
2022/09/07 04:22:50;;;;;;;8.47;6.73;;;;;;;16.16;100.00;101906.69;2080075;28;20196;-62
2022/09/07 04:23:52;;;;;;;10.93;7.17;;;;;;;16.19;100.00;101903.00;2080043;28;20292;-63
2022/09/07 04:24:52;;;;;;;10.07;6.80;;;;;;;16.23;100.00;101906.50;2076284;28;20749;-62
2022/09/07 04:25:53;;;;;;;12.57;7.40;;;;;;;16.24;100.00;101908.06;2078047;28;20931;-61
2022/09/07 04:26:54;;;;;;;10.00;7.60;;;;;;;16.27;100.00;101904.41;2078987;28;20217;-60
2022/09/07 04:27:55;;;;;;;7.93;7.13;;;;;;;16.30;100.00;101905.53;2079359;28;20220;-61
2022/09/07 04:28:59;;;;;;;7.93;6.63;;;;;;;16.34;100.00;101909.03;2079944;28;20201;-61
2022/09/07 04:30:00;;;;;;;12.40;7.43;;;;;;;16.35;100.00;101905.00;2079453;28;20416;-61
2022/09/07 04:31:01;;;;;;;11.00;7.70;;;;;;;16.28;100.00;101893.97;2080064;28;20420;-61
2022/09/07 04:32:02;;;;;;;11.40;7.77;;;;;;;16.43;100.00;101909.19;2079520;28;20202;-61
2022/09/07 04:33:03;;;;;;;12.00;7.70;;;;;;;16.47;100.00;101909.88;2079827;28;20477;-61
2022/09/07 04:34:05;;;;;;;12.63;8.00;;;;;;;16.50;100.00;101909.00;2079132;28;20226;-61
2022/09/07 04:35:06;;;;;;;14.47;8.50;;;;;;;16.52;100.00;101914.16;2079276;28;20666;-60
2022/09/07 04:36:07;;;;;;;16.47;8.63;;;;;;;16.55;100.00;101914.06;2079285;28;20542;-61
2022/09/07 04:37:07;;;;;;;16.43;8.40;;;;;;;16.61;100.00;101912.28;2078599;28;20480;-61
2022/09/07 04:38:13;;;;;;;16.47;8.40;;;;;;;16.40;100.00;101879.31;2070831;28;20432;-61
2022/09/07 04:39:13;;;;;;;13.20;8.30;;;;;;;16.67;100.00;101913.31;2079109;28;20173;-61
2022/09/07 04:40:14;;;;;;;19.40;8.50;;;;;;;16.70;100.00;101912.44;2080094;28;20496;-61
2022/09/07 04:41:16;;;;;;;17.23;9.07;;;;;;;16.68;100.00;101906.47;2079581;28;20198;-61
2022/09/07 04:42:17;;;;;;;15.03;9.03;;;;;;;16.76;100.00;101917.03;2080152;28;20182;-61
2022/09/07 04:43:18;;;;;;;17.73;8.23;;;;;;;16.78;100.00;101913.78;2079543;28;20445;-61
2022/09/07 04:44:18;;;;;;;14.90;7.90;;;;;;;16.81;100.00;101910.88;2078968;28;20284;-61
2022/09/07 04:45:19;;;;;;;13.77;8.03;;;;;;;16.86;100.00;101912.34;2078626;28;20200;-60
2022/09/07 04:46:28;;;;;;;12.87;8.37;;;;;;;16.90;100.00;101911.03;2079212;28;20195;-62
2022/09/07 04:47:30;;;;;;;12.67;8.47;;;;;;;16.93;100.00;101915.75;2079314;28;20266;-61
2022/09/07 04:48:31;;;;;;;12.10;8.10;;;;;;;16.98;100.00;101933.22;2079437;28;20889;-61
2022/09/07 04:49:31;;;;;;;13.27;8.50;;;;;;;17.00;100.00;101909.16;2072941;28;20458;-61
2022/09/07 04:50:32;;;;;;;11.70;8.60;;;;;;;17.01;100.00;101914.28;2079100;28;20256;-61
2022/09/07 04:51:34;;;;;;;13.30;9.00;;;;;;;17.03;100.00;101911.84;2077311;28;20200;-61
2022/09/07 04:52:34;;;;;;;17.30;9.23;;;;;;;17.07;100.00;101909.69;2078401;28;20202;-61
2022/09/07 04:53:36;;;;;;;15.47;9.63;;;;;;;17.09;100.00;101910.06;2077696;28;20457;-61
2022/09/07 04:54:37;;;;;;;18.00;9.70;;;;;;;17.13;100.00;101904.34;2072440;28;21857;-61
2022/09/07 04:55:38;;;;;;;17.53;9.93;;;;;;;16.94;100.00;101872.50;2076876;28;20503;-61
2022/09/07 04:56:38;;;;;;;20.57;10.20;;;;;;;17.19;100.00;101908.94;2077946;28;20545;-61
2022/09/07 04:57:39;;;;;;;18.03;10.70;;;;;;;17.21;100.00;101912.06;2078464;28;20199;-61